Time;durP1;ratioP1;P1;durP2;ratioP2;P2;SDS_P1;SDS_P2;PMS_P1;PMS_P2;Temp;Humidity;BMP_temperature;BMP_pressure;BME280_temperature;BME280_humidity;BME280_pressure;Samples;Min_cycle;Max_cycle;Signal;HPM_P1;HPM_P2
2023/01/15 00:01:04;;;;;;;4.9;2.6;;;;;;;;;;;;;
2023/01/15 00:03:31;;;;;;;4.3;2.4;;;;;;;;;;;;;
2023/01/15 00:05:58;;;;;;;3.4;2.5;;;;;;;;;;;;;
2023/01/15 00:08:25;;;;;;;3.1;2.3;;;;;;;;;;;;;
2023/01/15 00:10:55;;;;;;;3.2;2.1;;;;;;;;;;;;;
2023/01/15 00:13:20;;;;;;;2.7;1.8;;;;;;;;;;;;;
2023/01/15 00:15:47;;;;;;;2.4;1.8;;;;;;;;;;;;;
2023/01/15 00:18:15;;;;;;;2.4;1.8;;;;;;;;;;;;;
2023/01/15 00:20:41;;;;;;;2.5;1.8;;;;;;;;;;;;;
2023/01/15 00:27:37;;;;;;;3.2;1.9;;;;;;;;;;;;;
2023/01/15 00:28:16;;;;;;;2.9;1.8;;;;;;;;;;;;;
2023/01/15 00:30:47;;;;;;;4.6;2.1;;;;;;;;;;;;;
2023/01/15 00:33:16;;;;;;;4.2;2.2;;;;;;;;;;;;;
2023/01/15 00:35:41;;;;;;;4.1;2.3;;;;;;;;;;;;;
2023/01/15 00:38:06;;;;;;;4;2;;;;;;;;;;;;;
2023/01/15 00:40:31;;;;;;;4.3;2.3;;;;;;;;;;;;;
2023/01/15 00:42:57;;;;;;;3.8;2.3;;;;;;;;;;;;;
2023/01/15 00:45:22;;;;;;;4;2.1;;;;;;;;;;;;;
2023/01/15 00:47:49;;;;;;;3.5;2.4;;;;;;;;;;;;;
2023/01/15 00:50:14;;;;;;;2.6;1.9;;;;;;;;;;;;;
2023/01/15 00:52:40;;;;;;;3.1;2.3;;;;;;;;;;;;;
2023/01/15 00:55:05;;;;;;;3.1;1.8;;;;;;;;;;;;;
2023/01/15 00:57:30;;;;;;;3.4;2.1;;;;;;;;;;;;;
2023/01/15 00:59:55;;;;;;;3.7;1.9;;;;;;;;;;;;;
2023/01/15 01:02:20;;;;;;;4.6;2.1;;;;;;;;;;;;;
2023/01/15 01:04:46;;;;;;;3.3;1.9;;;;;;;;;;;;;
2023/01/15 01:07:11;;;;;;;3;1.9;;;;;;;;;;;;;
2023/01/15 01:09:36;;;;;;;3.2;1.8;;;;;;;;;;;;;
2023/01/15 01:12:02;;;;;;;3.5;2.1;;;;;;;;;;;;;
2023/01/15 01:14:28;;;;;;;2.2;1.8;;;;;;;;;;;;;
2023/01/15 01:16:53;;;;;;;2.2;1.6;;;;;;;;;;;;;
2023/01/15 01:19:20;;;;;;;4.7;2.2;;;;;;;;;;;;;
2023/01/15 01:21:45;;;;;;;3.2;2.2;;;;;;;;;;;;;
2023/01/15 01:24:11;;;;;;;3.2;1.9;;;;;;;;;;;;;
2023/01/15 01:26:36;;;;;;;3.2;1.9;;;;;;;;;;;;;
2023/01/15 01:29:01;;;;;;;2.4;1.6;;;;;;;;;;;;;
2023/01/15 01:31:26;;;;;;;1.8;1.5;;;;;;;;;;;;;
2023/01/15 01:33:52;;;;;;;1.4;1.2;;;;;;;;;;;;;
2023/01/15 01:36:17;;;;;;;1.3;1.1;;;;;;;;;;;;;
2023/01/15 01:38:44;;;;;;;1.1;1;;;;;;;;;;;;;
2023/01/15 01:41:09;;;;;;;1.1;0.9;;;;;;;;;;;;;
2023/01/15 01:43:35;;;;;;;1.1;0.9;;;;;;;;;;;;;
2023/01/15 01:46:00;;;;;;;1.1;0.9;;;;;;;;;;;;;
2023/01/15 01:48:25;;;;;;;1.4;0.9;;;;;;;;;;;;;
2023/01/15 01:50:50;;;;;;;1.1;1;;;;;;;;;;;;;
2023/01/15 01:53:15;;;;;;;2.7;1.3;;;;;;;;;;;;;
2023/01/15 01:55:41;;;;;;;1.5;1;;;;;;;;;;;;;
2023/01/15 01:58:06;;;;;;;1.1;1;;;;;;;;;;;;;
2023/01/15 02:00:33;;;;;;;1.4;0.8;;;;;;;;;;;;;
2023/01/15 02:02:58;;;;;;;2.3;1.3;;;;;;;;;;;;;
2023/01/15 02:05:23;;;;;;;1;0.8;;;;;;;;;;;;;
2023/01/15 02:07:48;;;;;;;0.8;0.8;;;;;;;;;;;;;
2023/01/15 02:10:13;;;;;;;0.6;0.6;;;;;;;;;;;;;
2023/01/15 02:12:39;;;;;;;0.9;0.8;;;;;;;;;;;;;
2023/01/15 02:15:04;;;;;;;1;0.9;;;;;;;;;;;;;
2023/01/15 02:17:29;;;;;;;2.2;0.9;;;;;;;;;;;;;
2023/01/15 02:19:54;;;;;;;1.5;1.1;;;;;;;;;;;;;
2023/01/15 02:22:20;;;;;;;0.8;0.7;;;;;;;;;;;;;
2023/01/15 02:24:45;;;;;;;0.7;0.6;;;;;;;;;;;;;
2023/01/15 02:27:10;;;;;;;0.4;0.4;;;;;;;;;;;;;
2023/01/15 02:29:35;;;;;;;2.4;0.8;;;;;;;;;;;;;
2023/01/15 02:32:01;;;;;;;3.6;1.2;;;;;;;;;;;;;
2023/01/15 02:34:27;;;;;;;2.4;0.9;;;;;;;;;;;;;
2023/01/15 02:36:52;;;;;;;5.2;1.1;;;;;;;;;;;;;
2023/01/15 02:39:17;;;;;;;4;0.8;;;;;;;;;;;;;
2023/01/15 02:41:42;;;;;;;2;0.7;;;;;;;;;;;;;
2023/01/15 02:44:07;;;;;;;2;0.9;;;;;;;;;;;;;
2023/01/15 02:46:34;;;;;;;0.8;0.6;;;;;;;;;;;;;
2023/01/15 02:48:59;;;;;;;0.8;0.7;;;;;;;;;;;;;
2023/01/15 02:51:25;;;;;;;0.8;0.8;;;;;;;;;;;;;
2023/01/15 02:53:50;;;;;;;1.7;0.7;;;;;;;;;;;;;
2023/01/15 02:56:15;;;;;;;0.7;0.5;;;;;;;;;;;;;
2023/01/15 02:58:40;;;;;;;3.9;0.8;;;;;;;;;;;;;
2023/01/15 03:01:07;;;;;;;1.5;0.8;;;;;;;;;;;;;
2023/01/15 03:03:33;;;;;;;1.2;0.8;;;;;;;;;;;;;
2023/01/15 03:06:01;;;;;;;1.3;0.9;;;;;;;;;;;;;
2023/01/15 03:08:26;;;;;;;1.4;0.6;;;;;;;;;;;;;
2023/01/15 03:10:51;;;;;;;1.2;1;;;;;;;;;;;;;
2023/01/15 03:13:16;;;;;;;4.4;1.9;;;;;;;;;;;;;
2023/01/15 03:18:07;;;;;;;3.1;1.3;;;;;;;;;;;;;
2023/01/15 03:20:32;;;;;;;2.8;0.8;;;;;;;;;;;;;
2023/01/15 03:22:59;;;;;;;4;1.2;;;;;;;;;;;;;
2023/01/15 03:25:24;;;;;;;0.8;0.6;;;;;;;;;;;;;
2023/01/15 03:27:49;;;;;;;3.9;1.6;;;;;;;;;;;;;
2023/01/15 03:30:17;;;;;;;5.6;3.2;;;;;;;;;;;;;
2023/01/15 03:32:42;;;;;;;5.9;2.5;;;;;;;;;;;;;
2023/01/15 03:35:09;;;;;;;2.4;1.7;;;;;;;;;;;;;
2023/01/15 03:37:33;;;;;;;3.1;1.3;;;;;;;;;;;;;
2023/01/15 03:39:59;;;;;;;1.5;1;;;;;;;;;;;;;
2023/01/15 03:42:30;;;;;;;4.9;1;;;;;;;;;;;;;
2023/01/15 03:44:55;;;;;;;1.1;0.9;;;;;;;;;;;;;
2023/01/15 03:47:21;;;;;;;1.5;1;;;;;;;;;;;;;
2023/01/15 03:49:46;;;;;;;2.5;1.4;;;;;;;;;;;;;
2023/01/15 03:52:11;;;;;;;1.5;0.9;;;;;;;;;;;;;
2023/01/15 03:54:36;;;;;;;0.9;0.6;;;;;;;;;;;;;
2023/01/15 03:57:01;;;;;;;0.5;0.5;;;;;;;;;;;;;
2023/01/15 03:59:26;;;;;;;2;0.6;;;;;;;;;;;;;
2023/01/15 04:02:35;;;;;;;0.6;0.5;;;;;;;7.63;64.82422;927.3582;;;;
2023/01/15 04:05:00;;;;;;;1.4;0.7;;;;;;;7.67;65.64746;927.3131;;;;
2023/01/15 04:07:25;;;;;;;0.6;0.6;;;;;;;7.54;65.76367;927.2927;;;;
2023/01/15 04:09:55;;;;;;;1;0.8;;;;;;;7.59;62.71875;927.2341;;;;
2023/01/15 04:12:21;;;;;;;0.6;0.6;;;;;;;7.74;61.1084;927.1777;;;;
2023/01/15 04:14:51;;;;;;;0.8;0.8;;;;;;;7.84;61.25879;927.2281;;;;
2023/01/15 04:17:17;;;;;;;1;0.7;;;;;;;7.87;62.75;927.1584;;;;
2023/01/15 04:19:43;;;;;;;0.9;0.8;;;;;;;7.76;63.83301;927.1104;;;;
2023/01/15 04:22:07;;;;;;;1.4;0.8;;;;;;;7.65;65.10059;927.0374;;;;
2023/01/15 04:24:34;;;;;;;1.4;0.9;;;;;;;7.4;66.83008;927.0567;;;;
2023/01/15 04:27:00;;;;;;;1.5;1.1;;;;;;;7.35;66.52734;926.9846;;;;
2023/01/15 04:29:29;;;;;;;1.5;0.9;;;;;;;7.33;67.21582;927.0414;;;;
2023/01/15 04:31:56;;;;;;;1;0.9;;;;;;;7.18;67.07813;926.9821;;;;
2023/01/15 04:34:19;;;;;;;1.5;1.1;;;;;;;7.22;66.71094;926.9999;;;;
2023/01/15 04:36:48;;;;;;;1;0.9;;;;;;;7.21;66.70996;927.0323;;;;
2023/01/15 04:39:13;;;;;;;0.9;0.8;;;;;;;7.23;65.79395;926.9984;;;;
2023/01/15 04:44:09;;;;;;;2;0.8;;;;;;;7.62;62.04492;926.9564;;;;
2023/01/15 04:46:31;;;;;;;0.8;0.8;;;;;;;7.75;62.64258;926.8996;;;;
2023/01/15 04:49:01;;;;;;;1.7;0.8;;;;;;;7.69;63.7207;926.9313;;;;
2023/01/15 04:51:30;;;;;;;1.7;0.9;;;;;;;7.71;63.31738;926.8909;;;;
2023/01/15 04:53:55;;;;;;;1;0.9;;;;;;;7.7;64.74512;926.875;;;;
2023/01/15 04:56:22;;;;;;;2;1.4;;;;;;;7.65;66.33594;926.9462;;;;
2023/01/15 04:58:47;;;;;;;2.1;1.6;;;;;;;7.17;68.57324;926.7636;;;;
2023/01/15 05:01:12;;;;;;;3.5;1.7;;;;;;;7.14;69.54199;926.7611;;;;
2023/01/15 05:03:39;;;;;;;1.9;1.4;;;;;;;6.93;69.8252;926.6508;;;;
2023/01/15 05:06:04;;;;;;;2.4;1.6;;;;;;;6.91;70.44531;926.6096;;;;
2023/01/15 05:08:32;;;;;;;2.1;1.4;;;;;;;6.66;70.58496;926.7173;;;;
2023/01/15 05:10:57;;;;;;;1.3;1.2;;;;;;;6.7;70.75098;926.7642;;;;
2023/01/15 05:13:23;;;;;;;2.1;1.5;;;;;;;6.77;71.08887;926.774;;;;
2023/01/15 05:15:48;;;;;;;2.8;1.6;;;;;;;6.81;71.21973;926.8176;;;;
2023/01/15 05:18:14;;;;;;;1.1;1;;;;;;;6.84;70.93164;926.7936;;;;
2023/01/15 05:20:40;;;;;;;2.6;1.7;;;;;;;6.9;70.88477;926.7907;;;;
2023/01/15 05:23:05;;;;;;;2;0.9;;;;;;;6.88;71.42578;926.8152;;;;
2023/01/15 05:25:36;;;;;;;2.1;1.4;;;;;;;6.73;71.89844;926.8719;;;;
2023/01/15 05:28:04;;;;;;;1.3;1.2;;;;;;;6.61;72.65918;926.7676;;;;
2023/01/15 05:30:29;;;;;;;1.3;0.9;;;;;;;6.76;72.45703;926.8214;;;;
2023/01/15 05:32:56;;;;;;;1.2;0.9;;;;;;;6.71;72.66406;926.8987;;;;
2023/01/15 05:35:21;;;;;;;1.1;1;;;;;;;6.86;72.81543;926.7969;;;;
2023/01/15 05:37:50;;;;;;;1.8;1.3;;;;;;;6.91;72.62891;926.7765;;;;
2023/01/15 05:40:20;;;;;;;1.7;1.1;;;;;;;6.93;72.63379;926.7664;;;;
2023/01/15 05:42:48;;;;;;;2.2;1.3;;;;;;;6.98;72.28027;926.7974;;;;
2023/01/15 05:45:14;;;;;;;3.1;1.2;;;;;;;6.7;73.46484;926.8329;;;;
2023/01/15 05:47:42;;;;;;;3.4;2.5;;;;;;;6.48;74.02734;926.9105;;;;
2023/01/15 05:50:06;;;;;;;3.1;2.1;;;;;;;6.78;71.43164;926.9291;;;;
2023/01/15 05:52:33;;;;;;;3.1;1.8;;;;;;;6.89;71.86914;926.9141;;;;
2023/01/15 05:54:58;;;;;;;2.9;1.8;;;;;;;6.88;72.51074;926.9299;;;;
2023/01/15 05:57:27;;;;;;;2.2;1.6;;;;;;;6.98;72.1543;926.89;;;;
2023/01/15 05:59:54;;;;;;;3.1;2;;;;;;;7.02;72.80762;926.8549;;;;
2023/01/15 06:02:22;;;;;;;3.1;1.8;;;;;;;6.9;72.80859;926.9182;;;;
2023/01/15 06:04:47;;;;;;;2.6;1.9;;;;;;;6.91;73.12891;926.858;;;;
2023/01/15 06:07:13;;;;;;;1.4;1.2;;;;;;;6.94;71.17383;926.8842;;;;
2023/01/15 06:09:38;;;;;;;2.4;1.5;;;;;;;7;71.33008;926.8861;;;;
2023/01/15 06:12:06;;;;;;;1.4;1.1;;;;;;;6.99;71.77246;926.7896;;;;
2023/01/15 06:14:31;;;;;;;2.6;1.4;;;;;;;7.06;71.70508;926.7791;;;;
2023/01/15 06:17:01;;;;;;;3.4;1.6;;;;;;;6.94;72.34082;926.8605;;;;
2023/01/15 06:19:26;;;;;;;3.9;1.8;;;;;;;7.01;72.0127;926.7583;;;;
2023/01/15 06:21:51;;;;;;;2.6;1.8;;;;;;;7.02;71.75391;926.8976;;;;
2023/01/15 06:24:18;;;;;;;2;1.5;;;;;;;7.08;71.67285;926.6445;;;;
2023/01/15 06:26:46;;;;;;;1.7;1.4;;;;;;;7.1;71.86914;926.7349;;;;
2023/01/15 06:29:12;;;;;;;1.4;1.3;;;;;;;7.06;71.86328;926.616;;;;
2023/01/15 06:31:38;;;;;;;1.1;0.8;;;;;;;6.92;72.41699;926.7322;;;;
2023/01/15 06:34:03;;;;;;;0.9;0.8;;;;;;;6.79;72.74512;926.8192;;;;
2023/01/15 06:36:32;;;;;;;0.9;0.7;;;;;;;6.93;70.45898;926.7845;;;;
2023/01/15 06:39:02;;;;;;;4.6;1.2;;;;;;;6.95;70.73438;926.8661;;;;
2023/01/15 06:48:43;;;;;;;5;3.5;;;;;;;6.83;73.37695;927.0183;;;;
2023/01/15 06:51:08;;;;;;;4.8;3.5;;;;;;;6.92;73.85352;927.0955;;;;
2023/01/15 06:53:34;;;;;;;5.6;3.8;;;;;;;6.97;74.41699;927.0015;;;;
2023/01/15 06:55:59;;;;;;;5.7;3.8;;;;;;;6.92;74.7373;927.0385;;;;
2023/01/15 06:58:27;;;;;;;6.4;3.9;;;;;;;6.95;74.81055;927.0125;;;;
2023/01/15 07:00:54;;;;;;;7.2;3.8;;;;;;;6.66;75.03125;927.2598;;;;
2023/01/15 07:03:17;;;;;;;6.6;4.1;;;;;;;6.67;75.08984;927.3248;;;;
2023/01/15 07:05:44;;;;;;;5.6;3.6;;;;;;;6.75;74.16504;927.3964;;;;
2023/01/15 07:08:27;;;;;;;6.1;3.8;;;;;;;6.8;74.50098;927.3817;;;;
2023/01/15 07:10:52;;;;;;;4.5;2.5;;;;;;;6.86;74.67188;927.24;;;;
2023/01/15 07:13:17;;;;;;;4.2;2.3;;;;;;;6.91;74.87207;927.256;;;;
2023/01/15 07:15:51;;;;;;;4.3;3.2;;;;;;;6.83;75.36719;927.4423;;;;
2023/01/15 07:18:19;;;;;;;6.1;3.5;;;;;;;6.83;75.56152;927.3948;;;;
2023/01/15 07:20:45;;;;;;;6.9;3.8;;;;;;;6.81;75.38672;927.4548;;;;
2023/01/15 07:23:11;;;;;;;6.2;4.6;;;;;;;6.66;75.8916;927.4006;;;;
2023/01/15 07:25:37;;;;;;;7;4.3;;;;;;;6.6;76.01563;927.2551;;;;
2023/01/15 07:28:03;;;;;;;6.7;4.5;;;;;;;6.56;76.79004;927.3127;;;;
2023/01/15 07:30:28;;;;;;;6.9;5.1;;;;;;;6.68;75.99609;927.3588;;;;
2023/01/15 07:32:55;;;;;;;7.1;5.1;;;;;;;6.69;75.99805;927.5203;;;;
2023/01/15 07:35:20;;;;;;;12;6;;;;;;;6.77;76.0127;927.558;;;;
2023/01/15 07:37:48;;;;;;;16.6;9.9;;;;;;;6.78;75.77637;927.7186;;;;
2023/01/15 07:40:13;;;;;;;5;3.5;;;;;;;6.75;75.40918;927.8639;;;;
2023/01/15 07:49:57;;;;;;;3.5;2.4;;;;;;;7.21;74.26563;927.671;;;;
2023/01/15 07:52:22;;;;;;;3.1;2.4;;;;;;;7.25;73.82031;927.5851;;;;
2023/01/15 07:54:49;;;;;;;4.2;2.8;;;;;;;7.16;74.38184;927.4395;;;;
2023/01/15 07:57:14;;;;;;;4.1;3;;;;;;;7.06;75.74707;927.496;;;;
2023/01/15 07:59:40;;;;;;;3.8;2.8;;;;;;;7.15;73.99707;927.4141;;;;
2023/01/15 08:02:09;;;;;;;2.6;2.2;;;;;;;7.14;74.6748;927.5004;;;;
2023/01/15 08:04:38;;;;;;;2.6;1.7;;;;;;;7.22;73.14648;927.4749;;;;
2023/01/15 08:07:03;;;;;;;1.9;1.6;;;;;;;7.32;71.91699;927.4998;;;;
2023/01/15 08:09:28;;;;;;;1.8;1.4;;;;;;;7.46;70.08203;927.4152;;;;
2023/01/15 08:16:48;;;;;;;2.9;1.6;;;;;;;7.94;69.76172;927.0832;;;;
2023/01/15 08:19:13;;;;;;;1.3;1.2;;;;;;;8.12;67.18066;926.9425;;;;
2023/01/15 08:21:38;;;;;;;1.6;1.4;;;;;;;8.21;67.61426;926.7911;;;;
2023/01/15 08:24:04;;;;;;;3.5;2.2;;;;;;;8.05;68.28223;926.7277;;;;
2023/01/15 08:26:30;;;;;;;7.4;5.5;;;;;;;7.73;70.2627;926.7198;;;;
2023/01/15 08:28:58;;;;;;;7.5;5.2;;;;;;;7.69;71.19629;926.6119;;;;
2023/01/15 08:31:23;;;;;;;6.9;5;;;;;;;7.68;71.42188;926.5066;;;;
2023/01/15 08:33:49;;;;;;;3.8;3;;;;;;;7.63;71.16309;926.5319;;;;
2023/01/15 08:36:15;;;;;;;3.4;2.8;;;;;;;7.62;71.84277;926.5446;;;;
2023/01/15 08:38:44;;;;;;;3.7;2.4;;;;;;;7.68;71.89844;926.5478;;;;
2023/01/15 08:41:09;;;;;;;3;2.4;;;;;;;7.68;71.33105;926.486;;;;
2023/01/15 08:43:36;;;;;;;3.4;2.2;;;;;;;7.73;70.27344;926.3791;;;;
2023/01/15 08:46:01;;;;;;;2.7;2.2;;;;;;;7.84;69.48438;926.4302;;;;
2023/01/15 08:48:29;;;;;;;6.2;4.5;;;;;;;7.89;69.16406;926.427;;;;
2023/01/15 08:50:54;;;;;;;6.4;4.4;;;;;;;7.83;69.93848;926.5228;;;;
2023/01/15 08:53:20;;;;;;;6.3;3.9;;;;;;;7.81;70.37598;926.5006;;;;
2023/01/15 08:55:45;;;;;;;7.1;4.2;;;;;;;7.89;70.28809;926.4064;;;;
2023/01/15 08:58:11;;;;;;;5.3;3.3;;;;;;;7.92;68.88672;926.427;;;;
2023/01/15 09:00:36;;;;;;;4.2;2.8;;;;;;;7.97;68.96191;926.5015;;;;
2023/01/15 09:03:05;;;;;;;2.7;2.2;;;;;;;8.01;68.68555;926.4947;;;;
2023/01/15 09:05:30;;;;;;;2.8;2.1;;;;;;;8.1;68.9248;926.4612;;;;
2023/01/15 09:07:56;;;;;;;3.5;2.6;;;;;;;8.23;68.1875;926.4678;;;;
2023/01/15 09:10:22;;;;;;;5;2.3;;;;;;;8.34;66.95313;926.3546;;;;
2023/01/15 09:12:49;;;;;;;7.3;2.8;;;;;;;8.47;66.56445;926.3617;;;;
2023/01/15 09:15:14;;;;;;;6.5;2.4;;;;;;;8.58;65.36621;926.3678;;;;
2023/01/15 09:17:43;;;;;;;4.4;2.5;;;;;;;8.72;64.22656;926.282;;;;
2023/01/15 09:20:08;;;;;;;5.6;3.3;;;;;;;8.8;62.62402;926.1992;;;;
2023/01/15 09:22:38;;;;;;;4.8;3.2;;;;;;;9.04;62.2832;926.1417;;;;
2023/01/15 09:25:09;;;;;;;7.2;3.6;;;;;;;9.34;60.00488;926.1102;;;;
2023/01/15 09:27:36;;;;;;;6.2;3;;;;;;;9.64;60.66113;926.1414;;;;
2023/01/15 09:30:01;;;;;;;11.3;3.5;;;;;;;9.85;58.79785;926.1664;;;;
2023/01/15 09:32:31;;;;;;;4.2;2.6;;;;;;;10.13;57;926.2734;;;;
2023/01/15 09:34:55;;;;;;;5.2;3;;;;;;;10.34;56.85742;926.3826;;;;
2023/01/15 09:37:24;;;;;;;4.8;2.3;;;;;;;10.51;55.94238;926.3663;;;;
2023/01/15 09:39:55;;;;;;;3.5;2.5;;;;;;;10.5;57.79102;926.2502;;;;
2023/01/15 09:42:20;;;;;;;4.9;2.3;;;;;;;10.48;57.01172;926.2671;;;;
2023/01/15 09:44:45;;;;;;;1.8;1.3;;;;;;;10.53;53.14844;926.238;;;;
2023/01/15 09:47:11;;;;;;;2.2;1;;;;;;;10.62;54.51855;926.1832;;;;
2023/01/15 09:49:38;;;;;;;1.8;1;;;;;;;10.59;51.8877;926.122;;;;
2023/01/15 09:52:03;;;;;;;6;1.7;;;;;;;10.47;50.61914;926.1088;;;;
2023/01/15 09:54:31;;;;;;;9.7;2.1;;;;;;;10.67;50.36719;926.1317;;;;
2023/01/15 09:57:00;;;;;;;32.4;5.8;;;;;;;10.7;52.12988;926.2214;;;;
2023/01/15 09:59:29;;;;;;;33.6;13.2;;;;;;;10.75;52.71875;926.2169;;;;
2023/01/15 10:01:54;;;;;;;20.5;9;;;;;;;10.85;52.57031;926.173;;;;
2023/01/15 10:04:19;;;;;;;5.1;2.6;;;;;;;10.8;53.18066;926.1208;;;;
2023/01/15 10:06:44;;;;;;;27;4;;;;;;;10.44;53.9707;926.1004;;;;
2023/01/15 10:09:10;;;;;;;26.5;4.8;;;;;;;10.49;53.1084;925.9894;;;;
2023/01/15 10:14:03;;;;;;;10.8;2.5;;;;;;;10.46;49.63477;925.9387;;;;
2023/01/15 10:16:30;;;;;;;5.6;1.6;;;;;;;10.62;50.41895;926.0073;;;;
2023/01/15 10:19:01;;;;;;;12;2.3;;;;;;;10.65;50.71875;926.085;;;;
2023/01/15 10:21:25;;;;;;;8.1;3.3;;;;;;;10.63;52.05273;926.1353;;;;
2023/01/15 10:23:51;;;;;;;3.4;1.3;;;;;;;10.82;51.57227;926.0883;;;;
2023/01/15 10:26:17;;;;;;;5.6;1.5;;;;;;;10.97;52.37988;926.0474;;;;
2023/01/15 10:28:41;;;;;;;8.1;1.8;;;;;;;11.06;52.64258;926.0148;;;;
2023/01/15 10:31:06;;;;;;;5;1.5;;;;;;;11.18;50.79297;926.0268;;;;
2023/01/15 10:33:36;;;;;;;1.3;0.7;;;;;;;11.61;50.41895;925.9626;;;;
2023/01/15 10:36:05;;;;;;;1.1;0.8;;;;;;;11.69;50.79492;925.9274;;;;
2023/01/15 10:38:35;;;;;;;1.3;1;;;;;;;11.73;50.69727;925.9858;;;;
2023/01/15 10:41:08;;;;;;;2.2;0.8;;;;;;;11.63;51.26855;926.0701;;;;
2023/01/15 10:43:35;;;;;;;1.1;0.9;;;;;;;11.86;51.68555;926.0705;;;;
2023/01/15 10:46:00;;;;;;;1.6;0.8;;;;;;;11.83;51.65918;926.0031;;;;
2023/01/15 10:48:25;;;;;;;0.9;0.8;;;;;;;12.08;51.75781;926.0817;;;;
2023/01/15 10:50:50;;;;;;;1.8;1.1;;;;;;;12.25;51.9834;926.0808;;;;
2023/01/15 10:53:15;;;;;;;2.2;0.9;;;;;;;12.22;51.72852;926.0238;;;;
2023/01/15 10:55:40;;;;;;;1.2;1;;;;;;;12.02;51.13184;926.0595;;;;
2023/01/15 10:58:06;;;;;;;5.2;1.3;;;;;;;12.06;52.66016;926.0023;;;;
2023/01/15 11:00:31;;;;;;;12.2;2.8;;;;;;;12.1;51.77148;926.035;;;;
2023/01/15 11:02:56;;;;;;;5.3;1.9;;;;;;;12.08;50.55469;925.9588;;;;
2023/01/15 11:05:21;;;;;;;2.7;1.3;;;;;;;11.98;50.55469;925.9529;;;;
2023/01/15 11:07:47;;;;;;;9.3;1.5;;;;;;;11.94;49.00195;925.8803;;;;
2023/01/15 11:10:13;;;;;;;4.8;1.6;;;;;;;12.01;49.48145;925.923;;;;
2023/01/15 11:20:06;;;;;;;2.6;1.5;;;;;;;12.62;49.37793;926.035;;;;
2023/01/15 11:22:31;;;;;;;1.6;1.5;;;;;;;12.57;50.2793;926.153;;;;
2023/01/15 11:24:58;;;;;;;2.7;1.1;;;;;;;12.63;50.06836;926.109;;;;
2023/01/15 11:27:23;;;;;;;2.4;1.5;;;;;;;12.66;50.32422;926.0183;;;;
2023/01/15 11:29:49;;;;;;;2;1.6;;;;;;;12.65;52.81152;926.0919;;;;
2023/01/15 11:32:14;;;;;;;1.8;1.5;;;;;;;12.65;53.22461;926.1311;;;;
2023/01/15 11:34:39;;;;;;;3.1;1.7;;;;;;;12.61;54.44824;926.1962;;;;
2023/01/15 11:37:06;;;;;;;4.4;1.5;;;;;;;12.56;53.3623;926.2578;;;;
2023/01/15 11:39:32;;;;;;;3.2;1.7;;;;;;;12.37;51.57324;926.24;;;;
2023/01/15 11:51:49;;;;;;;3.8;1.6;;;;;;;12.41;50.61523;926.4622;;;;
2023/01/15 11:54:15;;;;;;;3.5;2.2;;;;;;;12.29;48.14746;926.4202;;;;
2023/01/15 11:56:39;;;;;;;4.4;2.1;;;;;;;12.22;50.01953;926.423;;;;
2023/01/15 11:59:05;;;;;;;7.7;2;;;;;;;12.15;50.73535;926.628;;;;
2023/01/15 12:01:31;;;;;;;4.1;2;;;;;;;12.34;50.6416;926.8775;;;;
2023/01/15 12:03:59;;;;;;;3.9;2.3;;;;;;;12.38;50.6582;926.8745;;;;
2023/01/15 12:06:25;;;;;;;2.8;1.9;;;;;;;12.25;52.80957;927.147;;;;
2023/01/15 12:08:50;;;;;;;1.8;0.7;;;;;;;10.94;65.47266;927.3596;;;;
2023/01/15 12:11:15;;;;;;;0.6;0.6;;;;;;;10.23;68.36523;927.2961;;;;
2023/01/15 12:13:40;;;;;;;0.3;0.3;;;;;;;9.73;71.01074;927.1646;;;;
2023/01/15 12:16:06;;;;;;;0.2;0.2;;;;;;;9.23;73.62695;927.6222;;;;
2023/01/15 12:18:31;;;;;;;0.5;0.5;;;;;;;9.09;75.43262;927.6398;;;;
2023/01/15 12:20:56;;;;;;;0.4;0.3;;;;;;;8.52;78.24414;927.5516;;;;
2023/01/15 12:23:23;;;;;;;0.3;0.3;;;;;;;8.51;78.0166;927.7706;;;;
2023/01/15 12:25:51;;;;;;;0.5;0.5;;;;;;;8.47;79.59766;927.9442;;;;
2023/01/15 12:28:16;;;;;;;1.7;0.2;;;;;;;8.03;82.57129;927.8128;;;;
2023/01/15 12:30:43;;;;;;;0.2;0.2;;;;;;;7.74;85.29297;928.3456;;;;
2023/01/15 12:33:08;;;;;;;0.4;0.3;;;;;;;7.43;86.55859;928.572;;;;
2023/01/15 12:35:34;;;;;;;0.5;0.5;;;;;;;7.22;88.15918;928.6631;;;;
2023/01/15 12:38:00;;;;;;;0.4;0.4;;;;;;;7.28;88.41992;928.6136;;;;
2023/01/15 12:40:25;;;;;;;0.4;0.4;;;;;;;7.08;89.55664;928.7775;;;;
2023/01/15 12:45:20;;;;;;;0.5;0.5;;;;;;;7.1;90.4209;928.8742;;;;
2023/01/15 12:47:50;;;;;;;0.6;0.5;;;;;;;6.95;90.54785;928.9448;;;;
2023/01/15 12:50:19;;;;;;;0.4;0.4;;;;;;;7.01;90.72168;929.1308;;;;
2023/01/15 12:52:44;;;;;;;1.4;0.5;;;;;;;7.11;90.43457;929.1624;;;;
2023/01/15 12:55:09;;;;;;;0.6;0.6;;;;;;;6.85;90.25684;929.2219;;;;
2023/01/15 12:57:35;;;;;;;1.8;0.7;;;;;;;6.5;92.27734;929.2512;;;;
2023/01/15 12:59:59;;;;;;;0.7;0.7;;;;;;;6.4;93.71289;929.2784;;;;
2023/01/15 13:02:25;;;;;;;1;0.9;;;;;;;6.56;92.69629;929.2914;;;;
2023/01/15 13:04:50;;;;;;;3.1;1.9;;;;;;;6.69;92.50879;929.3633;;;;
2023/01/15 13:07:15;;;;;;;1.5;0.8;;;;;;;6.52;92.20215;929.3717;;;;
2023/01/15 13:09:40;;;;;;;1.2;1.1;;;;;;;6.54;92.19238;929.3963;;;;
2023/01/15 13:12:10;;;;;;;0.8;0.8;;;;;;;6.65;91.12012;929.408;;;;
2023/01/15 13:14:35;;;;;;;2.3;1.7;;;;;;;6.73;91.11328;929.4989;;;;
2023/01/15 13:17:00;;;;;;;1.2;1.1;;;;;;;6.51;91.13477;929.5566;;;;
2023/01/15 13:19:29;;;;;;;1.5;1.2;;;;;;;6.38;91.8877;929.4775;;;;
2023/01/15 13:21:54;;;;;;;0.9;0.9;;;;;;;6.28;92.62402;929.4622;;;;
2023/01/15 13:24:22;;;;;;;2.2;1.6;;;;;;;6.28;93.15527;929.572;;;;
2023/01/15 13:26:47;;;;;;;0.8;0.8;;;;;;;6.49;92.54492;929.6386;;;;
2023/01/15 13:29:14;;;;;;;1.7;0.9;;;;;;;6.61;91.96094;929.7137;;;;
2023/01/15 13:31:39;;;;;;;1;0.8;;;;;;;6.7;90.54297;929.8728;;;;
2023/01/15 13:34:05;;;;;;;1.7;1.2;;;;;;;6.62;90.30957;929.7723;;;;
2023/01/15 13:36:30;;;;;;;1.4;1;;;;;;;6.54;90.72363;929.7697;;;;
2023/01/15 13:38:55;;;;;;;1;0.9;;;;;;;6.46;91.08008;929.8589;;;;
2023/01/15 13:42:30;;;;;;;4.8;3.4;;;;;;;6.47;91.41895;929.9246;;;;
2023/01/15 13:43:46;;;;;;;7.4;4.7;;;;;;;6.34;91.71973;930.0075;;;;
2023/01/15 13:46:10;;;;;;;6.1;4.4;;;;;;;6.1;93.43262;930.111;;;;
2023/01/15 13:48:35;;;;;;;9.4;6.1;;;;;;;6.12;93.95801;930.1105;;;;
2023/01/15 13:51:01;;;;;;;4.1;2.5;;;;;;;6.04;93.37598;930.2517;;;;
2023/01/15 13:53:26;;;;;;;9.7;6.3;;;;;;;5.97;93.66504;930.3777;;;;
2023/01/15 13:55:51;;;;;;;3.6;2.4;;;;;;;5.96;93.64063;930.3934;;;;
2023/01/15 13:58:16;;;;;;;1.1;0.8;;;;;;;6.03;92.93262;930.5289;;;;
2023/01/15 14:00:41;;;;;;;1.7;1.1;;;;;;;6.23;92.36328;930.5287;;;;
2023/01/15 14:03:06;;;;;;;0.9;0.8;;;;;;;6.38;88.66504;930.7575;;;;
2023/01/15 14:05:37;;;;;;;0.3;0.3;;;;;;;6.46;83.68262;930.7911;;;;
2023/01/15 14:08:02;;;;;;;0.3;0.3;;;;;;;6.44;81.82422;930.8408;;;;
2023/01/15 14:10:31;;;;;;;0.4;0.4;;;;;;;6.55;80.65723;930.8745;;;;
2023/01/15 14:12:56;;;;;;;0.4;0.3;;;;;;;6.59;80.83398;930.9296;;;;
2023/01/15 14:15:22;;;;;;;0.6;0.6;;;;;;;6.58;80.47168;930.9216;;;;
2023/01/15 14:17:47;;;;;;;14.9;8.6;;;;;;;6.65;86.65039;931.1174;;;;
2023/01/15 14:20:18;;;;;;;10.2;6;;;;;;;6.53;90.66504;930.9573;;;;
2023/01/15 14:22:43;;;;;;;8.6;4.9;;;;;;;6.62;90.53516;931.0023;;;;
2023/01/15 14:25:08;;;;;;;2.7;2.1;;;;;;;6.5;91.76758;931.1247;;;;
2023/01/15 14:27:33;;;;;;;2.4;1.9;;;;;;;6.33;93.49512;931.2747;;;;
2023/01/15 14:31:43;;;;;;;6.1;3.6;;;;;;;6.06;81.97656;931.2491;;;;
2023/01/15 14:34:08;;;;;;;0.4;0.4;;;;;;;5.86;80.50391;931.1926;;;;
2023/01/15 14:36:37;;;;;;;4.1;2.4;;;;;;;6.05;82.91211;931.3849;;;;
2023/01/15 14:39:05;;;;;;;7.2;3.2;;;;;;;6.05;84.15527;931.437;;;;
2023/01/15 14:41:30;;;;;;;1.1;0.9;;;;;;;6.17;83.59082;931.4554;;;;
2023/01/15 14:43:55;;;;;;;1.1;0.6;;;;;;;6.2;81.29199;931.2725;;;;
2023/01/15 14:46:20;;;;;;;0.8;0.5;;;;;;;6.1;75.91699;931.3683;;;;
2023/01/15 14:48:45;;;;;;;1.6;0.4;;;;;;;6.2;76.18262;931.3738;;;;
2023/01/15 14:51:10;;;;;;;29.8;14.7;;;;;;;6.23;75.10254;931.3879;;;;
2023/01/15 14:53:37;;;;;;;102.9;49.1;;;;;;;6.36;77.06934;931.4791;;;;
2023/01/15 14:56:01;;;;;;;184.8;79;;;;;;;6.51;78.05859;931.4529;;;;
2023/01/15 14:58:31;;;;;;;109.9;49.7;;;;;;;6.55;80.04883;931.3563;;;;
2023/01/15 15:00:56;;;;;;;31.4;21.4;;;;;;;6.38;84.83203;931.4272;;;;
2023/01/15 15:03:21;;;;;;;6;4.9;;;;;;;6.15;87.80273;931.5864;;;;
2023/01/15 15:05:49;;;;;;;1.1;1;;;;;;;6.04;87.2627;931.6836;;;;
2023/01/15 15:08:14;;;;;;;0.5;0.4;;;;;;;5.93;86.04297;931.62;;;;
2023/01/15 15:10:39;;;;;;;0.5;0.5;;;;;;;5.83;83.49219;931.6827;;;;
2023/01/15 15:13:05;;;;;;;1.1;0.6;;;;;;;5.83;83.78516;931.7151;;;;
2023/01/15 15:15:30;;;;;;;0.7;0.7;;;;;;;;;;;;;
2023/01/15 15:17:55;;;;;;;6.8;4.1;;;;;;;;;;;;;
2023/01/15 15:20:20;;;;;;;25.7;12.2;;;;;;;;;;;;;
2023/01/15 15:22:46;;;;;;;8.3;6.2;;;;;;;;;;;;;
2023/01/15 15:25:11;;;;;;;39;25.8;;;;;;;;;;;;;
2023/01/15 15:27:37;;;;;;;21.2;8.5;;;;;;;;;;;;;
2023/01/15 15:30:03;;;;;;;11.1;5.9;;;;;;;;;;;;;
2023/01/15 15:32:29;;;;;;;8.8;4.4;;;;;;;;;;;;;
2023/01/15 15:34:54;;;;;;;7.7;4;;;;;;;;;;;;;
2023/01/15 15:37:20;;;;;;;3.2;1.8;;;;;;;;;;;;;
2023/01/15 15:39:45;;;;;;;6.8;4.9;;;;;;;;;;;;;
2023/01/15 15:49:28;;;;;;;3;2;;;;;;;;;;;;;
2023/01/15 15:51:55;;;;;;;6.5;4.6;;;;;;;;;;;;;
2023/01/15 15:54:20;;;;;;;25.1;14.8;;;;;;;;;;;;;
2023/01/15 15:56:45;;;;;;;0.4;0.4;;;;;;;;;;;;;
2023/01/15 15:59:10;;;;;;;2;1.6;;;;;;;;;;;;;
2023/01/15 16:01:38;;;;;;;0.8;0.6;;;;;;;;;;;;;
2023/01/15 16:04:03;;;;;;;0.4;0.4;;;;;;;;;;;;;
2023/01/15 16:06:28;;;;;;;1.8;1.6;;;;;;;;;;;;;
2023/01/15 16:08:53;;;;;;;1.8;1.6;;;;;;;;;;;;;
2023/01/15 16:11:20;;;;;;;1.9;1.7;;;;;;;;;;;;;
2023/01/15 16:13:44;;;;;;;0.4;0.4;;;;;;;;;;;;;
2023/01/15 16:16:09;;;;;;;0.6;0.5;;;;;;;;;;;;;
2023/01/15 16:18:34;;;;;;;0.5;0.5;;;;;;;;;;;;;
2023/01/15 16:21:01;;;;;;;2.6;2.4;;;;;;;;;;;;;
2023/01/15 16:23:26;;;;;;;2.5;1.6;;;;;;;;;;;;;
2023/01/15 16:25:51;;;;;;;1.7;1.6;;;;;;;;;;;;;
2023/01/15 16:28:16;;;;;;;2.2;1.7;;;;;;;;;;;;;
2023/01/15 16:30:41;;;;;;;2.6;1.9;;;;;;;;;;;;;
2023/01/15 16:33:07;;;;;;;2.5;1.7;;;;;;;;;;;;;
2023/01/15 16:35:33;;;;;;;1.4;1.3;;;;;;;;;;;;;
2023/01/15 16:37:58;;;;;;;1.2;1.1;;;;;;;;;;;;;
2023/01/15 16:40:23;;;;;;;2.8;1.9;;;;;;;;;;;;;
2023/01/15 16:42:57;;;;;;;5;3.1;;;;;;;;;;;;;
2023/01/15 16:45:22;;;;;;;2.3;1.8;;;;;;;;;;;;;
2023/01/15 16:47:47;;;;;;;1.6;1;;;;;;;;;;;;;
2023/01/15 16:50:15;;;;;;;1.1;1;;;;;;;;;;;;;
2023/01/15 16:52:40;;;;;;;1.2;0.9;;;;;;;;;;;;;
2023/01/15 16:55:05;;;;;;;1.6;1.1;;;;;;;;;;;;;
2023/01/15 16:57:31;;;;;;;1.6;1.1;;;;;;;;;;;;;
2023/01/15 16:59:56;;;;;;;2.3;1.5;;;;;;;;;;;;;
2023/01/15 17:02:21;;;;;;;1.4;1.3;;;;;;;;;;;;;
2023/01/15 17:04:50;;;;;;;0.9;0.8;;;;;;;;;;;;;
2023/01/15 17:07:13;;;;;;;241.5;119.9;;;;;;;;;;;;;
2023/01/15 17:09:39;;;;;;;2.7;1.9;;;;;;;;;;;;;